sensor_id;sensor_type;location;lat;lon;timestamp;pressure;altitude;pressure_sealevel;temperature;humidity
71857;BME280;63344;46.980;28.882;2023-02-01T00:01:07;100377.69;;;2.45;75.37
71857;BME280;63344;46.980;28.882;2023-02-01T00:03:35;100388.19;;;2.44;75.17
71857;BME280;63344;46.980;28.882;2023-02-01T00:06:02;100385.63;;;2.41;75.14
71857;BME280;63344;46.980;28.882;2023-02-01T00:08:29;100397.81;;;2.45;75.47
71857;BME280;63344;46.980;28.882;2023-02-01T00:11:04;100387.31;;;2.45;75.66
71857;BME280;63344;46.980;28.882;2023-02-01T00:13:34;100377.81;;;2.36;75.43
71857;BME280;63344;46.980;28.882;2023-02-01T00:16:16;100380.38;;;2.41;75.82
71857;BME280;63344;46.980;28.882;2023-02-01T00:18:45;100376.91;;;2.38;75.51
71857;BME280;63344;46.980;28.882;2023-02-01T00:21:20;100375.16;;;2.37;75.30
71857;BME280;63344;46.980;28.882;2023-02-01T00:23:48;100376.91;;;2.38;75.22
71857;BME280;63344;46.980;28.882;2023-02-01T00:26:27;100371.66;;;2.38;75.62
71857;BME280;63344;46.980;28.882;2023-02-01T00:29:00;100369.09;;;2.34;75.81
71857;BME280;63344;46.980;28.882;2023-02-01T00:31:28;100365.63;;;2.32;75.68
71857;BME280;63344;46.980;28.882;2023-02-01T00:33:57;100359.53;;;2.25;75.40
71857;BME280;63344;46.980;28.882;2023-02-01T00:36:27;100370.00;;;2.30;75.85
71857;BME280;63344;46.980;28.882;2023-02-01T00:38:56;100363.91;;;2.26;75.98
71857;BME280;63344;46.980;28.882;2023-02-01T00:41:23;100356.94;;;2.24;75.93
71857;BME280;63344;46.980;28.882;2023-02-01T00:43:51;100357.81;;;2.23;75.81
71857;BME280;63344;46.980;28.882;2023-02-01T00:46:20;100349.06;;;2.25;76.03
71857;BME280;63344;46.980;28.882;2023-02-01T00:48:49;100344.72;;;2.24;76.05
71857;BME280;63344;46.980;28.882;2023-02-01T00:51:20;100344.69;;;2.27;75.63
71857;BME280;63344;46.980;28.882;2023-02-01T00:53:49;100331.63;;;2.23;76.01
71857;BME280;63344;46.980;28.882;2023-02-01T00:56:17;100332.56;;;2.15;75.96
71857;BME280;63344;46.980;28.882;2023-02-01T00:58:44;100326.53;;;2.06;75.71
71857;BME280;63344;46.980;28.882;2023-02-01T01:01:19;100313.53;;;1.96;75.99
71857;BME280;63344;46.980;28.882;2023-02-01T01:03:51;100318.84;;;1.87;75.65
71857;BME280;63344;46.980;28.882;2023-02-01T01:06:21;100338.06;;;1.83;76.10
71857;BME280;63344;46.980;28.882;2023-02-01T01:08:59;100350.31;;;1.79;76.34
71857;BME280;63344;46.980;28.882;2023-02-01T01:11:29;100354.72;;;1.73;76.27
71857;BME280;63344;46.980;28.882;2023-02-01T01:13:58;100346.88;;;1.71;76.39
71857;BME280;63344;46.980;28.882;2023-02-01T01:16:28;100346.91;;;1.67;77.17
71857;BME280;63344;46.980;28.882;2023-02-01T01:18:57;100339.97;;;1.61;76.68
71857;BME280;63344;46.980;28.882;2023-02-01T01:21:25;100339.13;;;1.59;76.77
71857;BME280;63344;46.980;28.882;2023-02-01T01:23:53;100338.25;;;1.55;76.62
71857;BME280;63344;46.980;28.882;2023-02-01T01:26:23;100336.53;;;1.54;76.69
71857;BME280;63344;46.980;28.882;2023-02-01T01:28:54;100348.72;;;1.55;76.28
71857;BME280;63344;46.980;28.882;2023-02-01T01:31:21;100344.41;;;1.51;75.87
71857;BME280;63344;46.980;28.882;2023-02-01T01:33:52;100357.47;;;1.51;76.13
71857;BME280;63344;46.980;28.882;2023-02-01T01:36:20;100354.91;;;1.48;76.11
71857;BME280;63344;46.980;28.882;2023-02-01T01:38:48;100347.91;;;1.47;75.84
71857;BME280;63344;46.980;28.882;2023-02-01T01:41:21;100335.78;;;1.35;75.41
71857;BME280;63344;46.980;28.882;2023-02-01T01:43:58;100352.31;;;1.41;74.89
71857;BME280;63344;46.980;28.882;2023-02-01T01:46:31;100353.19;;;1.39;75.03
71857;BME280;63344;46.980;28.882;2023-02-01T01:51:50;100348.84;;;1.38;74.79
71857;BME280;63344;46.980;28.882;2023-02-01T01:54:33;100346.22;;;1.37;74.43
71857;BME280;63344;46.980;28.882;2023-02-01T01:57:08;100339.28;;;1.33;74.44
71857;BME280;63344;46.980;28.882;2023-02-01T01:59:37;100347.13;;;1.33;74.16
71857;BME280;63344;46.980;28.882;2023-02-01T02:02:05;100343.69;;;1.26;74.07
71857;BME280;63344;46.980;28.882;2023-02-01T02:04:33;100347.19;;;1.22;74.16
71857;BME280;63344;46.980;28.882;2023-02-01T02:07:08;100345.44;;;1.19;73.83
71857;BME280;63344;46.980;28.882;2023-02-01T02:09:39;100347.19;;;1.19;73.69
71857;BME280;63344;46.980;28.882;2023-02-01T02:12:13;100355.94;;;1.16;73.80
71857;BME280;63344;46.980;28.882;2023-02-01T02:15:11;100351.56;;;1.15;74.01
71857;BME280;63344;46.980;28.882;2023-02-01T02:18:01;100350.72;;;1.16;73.60
71857;BME280;63344;46.980;28.882;2023-02-01T02:20:52;100349.84;;;1.14;73.73
71857;BME280;63344;46.980;28.882;2023-02-01T02:26:42;100350.75;;;1.09;74.01
71857;BME280;63344;46.980;28.882;2023-02-01T02:29:39;100356.00;;;1.04;73.84
71857;BME280;63344;46.980;28.882;2023-02-01T02:35:09;100360.38;;;0.99;74.04
71857;BME280;63344;46.980;28.882;2023-02-01T02:37:56;100354.28;;;0.98;74.06
71857;BME280;63344;46.980;28.882;2023-02-01T02:41:14;100356.03;;;0.96;74.20
71857;BME280;63344;46.980;28.882;2023-02-01T02:51:05;100360.41;;;0.85;75.37
71857;BME280;63344;46.980;28.882;2023-02-01T02:54:13;100366.53;;;0.84;75.63
71857;BME280;63344;46.980;28.882;2023-02-01T02:57:00;100367.41;;;0.86;75.58
71857;BME280;63344;46.980;28.882;2023-02-01T02:59:48;100371.75;;;0.84;75.51
71857;BME280;63344;46.980;28.882;2023-02-01T03:02:34;100375.22;;;0.83;75.65
71857;BME280;63344;46.980;28.882;2023-02-01T03:05:20;100365.63;;;0.84;75.67
71857;BME280;63344;46.980;28.882;2023-02-01T03:08:02;100360.41;;;0.88;75.67
71857;BME280;63344;46.980;28.882;2023-02-01T03:10:50;100364.75;;;0.91;75.33
71857;BME280;63344;46.980;28.882;2023-02-01T03:13:33;100356.91;;;0.91;75.25
71857;BME280;63344;46.980;28.882;2023-02-01T03:16:22;100356.06;;;0.90;75.63
71857;BME280;63344;46.980;28.882;2023-02-01T03:19:06;100347.31;;;0.96;75.65
71857;BME280;63344;46.980;28.882;2023-02-01T03:21:49;100350.78;;;0.95;75.18
71857;BME280;63344;46.980;28.882;2023-02-01T03:24:40;100351.69;;;0.94;75.31
71857;BME280;63344;46.980;28.882;2023-02-01T03:27:57;100338.63;;;0.92;75.87
71857;BME280;63344;46.980;28.882;2023-02-01T03:30:29;100336.00;;;0.89;76.19
71857;BME280;63344;46.980;28.882;2023-02-01T03:33:00;100343.88;;;0.86;75.48
71857;BME280;63344;46.980;28.882;2023-02-01T03:39:05;100356.94;;;0.74;76.52
71857;BME280;63344;46.980;28.882;2023-02-01T03:41:18;100356.13;;;0.67;76.67
71857;BME280;63344;46.980;28.882;2023-02-01T03:44:10;100357.00;;;0.63;76.56
71857;BME280;63344;46.980;28.882;2023-02-01T03:46:46;100353.50;;;0.59;76.64
71857;BME280;63344;46.980;28.882;2023-02-01T03:49:26;100350.91;;;0.55;76.91
71857;BME280;63344;46.980;28.882;2023-02-01T03:51:56;100353.53;;;0.46;77.32
71857;BME280;63344;46.980;28.882;2023-02-01T03:54:26;100342.25;;;0.42;77.19
71857;BME280;63344;46.980;28.882;2023-02-01T03:56:56;100350.09;;;0.39;77.63
71857;BME280;63344;46.980;28.882;2023-02-01T03:59:25;100349.22;;;0.38;77.40
71857;BME280;63344;46.980;28.882;2023-02-01T04:01:52;100350.09;;;0.34;77.79
71857;BME280;63344;46.980;28.882;2023-02-01T04:04:20;100355.31;;;0.31;77.88
71857;BME280;63344;46.980;28.882;2023-02-01T04:06:49;100339.69;;;0.22;78.33
71857;BME280;63344;46.980;28.882;2023-02-01T04:09:17;100345.75;;;0.23;78.28
71857;BME280;63344;46.980;28.882;2023-02-01T04:11:44;100348.38;;;0.15;78.67
71857;BME280;63344;46.980;28.882;2023-02-01T04:14:12;100350.97;;;0.12;78.58
71857;BME280;63344;46.980;28.882;2023-02-01T04:16:39;100345.75;;;0.07;79.21
71857;BME280;63344;46.980;28.882;2023-02-01T04:19:06;100355.31;;;0.10;79.61
71857;BME280;63344;46.980;28.882;2023-02-01T04:21:36;100352.75;;;0.08;79.76
71857;BME280;63344;46.980;28.882;2023-02-01T04:24:04;100359.69;;;0.09;80.10
71857;BME280;63344;46.980;28.882;2023-02-01T04:26:31;100364.94;;;0.06;80.21
71857;BME280;63344;46.980;28.882;2023-02-01T04:29:00;100360.53;;;0.10;80.09
71857;BME280;63344;46.980;28.882;2023-02-01T04:31:31;100361.44;;;0.07;80.16
71857;BME280;63344;46.980;28.882;2023-02-01T04:33:58;100364.03;;;0.12;80.04
71857;BME280;63344;46.980;28.882;2023-02-01T04:36:25;100363.19;;;0.14;80.21
71857;BME280;63344;46.980;28.882;2023-02-01T04:38:53;100360.53;;;0.16;79.96
71857;BME280;63344;46.980;28.882;2023-02-01T04:41:20;100358.81;;;0.15;80.01
71857;BME280;63344;46.980;28.882;2023-02-01T04:43:50;100364.03;;;0.19;80.06
71857;BME280;63344;46.980;28.882;2023-02-01T04:46:21;100357.94;;;0.19;80.43
71857;BME280;63344;46.980;28.882;2023-02-01T04:48:50;100362.28;;;0.22;80.54
71857;BME280;63344;46.980;28.882;2023-02-01T04:51:18;100355.34;;;0.19;80.32
71857;BME280;63344;46.980;28.882;2023-02-01T04:53:48;100363.19;;;0.22;80.30
71857;BME280;63344;46.980;28.882;2023-02-01T04:56:15;100364.03;;;0.26;79.97
71857;BME280;63344;46.980;28.882;2023-02-01T04:58:43;100354.47;;;0.26;79.98
71857;BME280;63344;46.980;28.882;2023-02-01T05:01:10;100366.63;;;0.26;79.88
71857;BME280;63344;46.980;28.882;2023-02-01T05:03:38;100353.59;;;0.24;80.34
71857;BME280;63344;46.980;28.882;2023-02-01T05:06:05;100351.00;;;0.24;79.87
71857;BME280;63344;46.980;28.882;2023-02-01T05:08:36;100353.56;;;0.18;79.94
71857;BME280;63344;46.980;28.882;2023-02-01T05:11:05;100351.84;;;0.14;79.97
71857;BME280;63344;46.980;28.882;2023-02-01T05:13:34;100346.66;;;0.05;80.17
71857;BME280;63344;46.980;28.882;2023-02-01T05:16:25;100353.59;;;-0.05;80.73
71857;BME280;63344;46.980;28.882;2023-02-01T05:19:07;100359.69;;;-0.15;80.80
71857;BME280;63344;46.980;28.882;2023-02-01T05:21:35;100364.88;;;-0.26;81.34
71857;BME280;63344;46.980;28.882;2023-02-01T05:24:03;100352.69;;;-0.36;81.82
71857;BME280;63344;46.980;28.882;2023-02-01T05:26:37;100362.28;;;-0.37;82.20
71857;BME280;63344;46.980;28.882;2023-02-01T05:29:06;100344.84;;;-0.49;82.70
71857;BME280;63344;46.980;28.882;2023-02-01T05:31:34;100350.06;;;-0.49;82.70
71857;BME280;63344;46.980;28.882;2023-02-01T05:34:16;100343.09;;;-0.59;83.07
71857;BME280;63344;46.980;28.882;2023-02-01T05:36:44;100337.88;;;-0.65;83.77
71857;BME280;63344;46.980;28.882;2023-02-01T05:39:11;100349.19;;;-0.63;83.80
71857;BME280;63344;46.980;28.882;2023-02-01T05:41:41;100349.19;;;-0.68;83.27
71857;BME280;63344;46.980;28.882;2023-02-01T05:44:12;100357.00;;;-0.69;83.50
71857;BME280;63344;46.980;28.882;2023-02-01T05:46:42;100362.19;;;-0.75;83.07
71857;BME280;63344;46.980;28.882;2023-02-01T05:49:11;100351.75;;;-0.82;83.86
71857;BME280;63344;46.980;28.882;2023-02-01T05:51:40;100370.88;;;-0.76;83.90
71857;BME280;63344;46.980;28.882;2023-02-01T05:54:14;100345.63;;;-0.82;83.98
71857;BME280;63344;46.980;28.882;2023-02-01T05:56:44;100359.59;;;-0.71;83.93
71857;BME280;63344;46.980;28.882;2023-02-01T05:59:11;100352.66;;;-0.66;84.15
71857;BME280;63344;46.980;28.882;2023-02-01T06:01:39;100346.56;;;-0.63;83.95
71857;BME280;63344;46.980;28.882;2023-02-01T06:04:06;100360.53;;;-0.52;83.92
71857;BME280;63344;46.980;28.882;2023-02-01T06:06:33;100357.03;;;-0.45;84.16
71857;BME280;63344;46.980;28.882;2023-02-01T06:09:03;100363.16;;;-0.39;84.19
71857;BME280;63344;46.980;28.882;2023-02-01T06:11:33;100357.91;;;-0.30;84.13
71857;BME280;63344;46.980;28.882;2023-02-01T06:14:00;100360.53;;;-0.24;84.13
71857;BME280;63344;46.980;28.882;2023-02-01T06:16:31;100356.22;;;-0.16;83.56
71857;BME280;63344;46.980;28.882;2023-02-01T06:18:59;100347.50;;;-0.10;83.17
71857;BME280;63344;46.980;28.882;2023-02-01T06:21:26;100354.47;;;0.02;83.05
71857;BME280;63344;46.980;28.882;2023-02-01T06:23:53;100359.69;;;0.18;82.38
71857;BME280;63344;46.980;28.882;2023-02-01T06:26:22;100364.91;;;0.29;82.28
71857;BME280;63344;46.980;28.882;2023-02-01T06:28:52;100363.16;;;0.39;81.19
71857;BME280;63344;46.980;28.882;2023-02-01T06:31:19;100370.94;;;0.56;80.79
71857;BME280;63344;46.980;28.882;2023-02-01T06:33:46;100369.19;;;0.67;80.49
71857;BME280;63344;46.980;28.882;2023-02-01T06:36:14;100375.25;;;0.80;80.49
71857;BME280;63344;46.980;28.882;2023-02-01T06:38:43;100367.38;;;0.92;80.18
71857;BME280;63344;46.980;28.882;2023-02-01T06:41:10;100363.84;;;1.01;79.14
71857;BME280;63344;46.980;28.882;2023-02-01T06:43:38;100376.00;;;1.14;78.82
71857;BME280;63344;46.980;28.882;2023-02-01T06:46:07;100368.13;;;1.22;78.10
71857;BME280;63344;46.980;28.882;2023-02-01T06:48:49;100348.88;;;1.28;77.93
71857;BME280;63344;46.980;28.882;2023-02-01T06:51:20;100367.97;;;1.48;77.43
71857;BME280;63344;46.980;28.882;2023-02-01T06:53:48;100364.44;;;1.58;77.25
71857;BME280;63344;46.980;28.882;2023-02-01T06:56:15;100368.72;;;1.69;76.68
71857;BME280;63344;46.980;28.882;2023-02-01T06:58:51;100352.06;;;1.82;76.91
71857;BME280;63344;46.980;28.882;2023-02-01T07:01:21;100362.47;;;1.90;75.43
71857;BME280;63344;46.980;28.882;2023-02-01T07:03:50;100343.25;;;1.91;74.92
71857;BME280;63344;46.980;28.882;2023-02-01T07:06:20;100353.72;;;1.94;74.34
71857;BME280;63344;46.980;28.882;2023-02-01T07:08:48;100359.81;;;1.91;74.18
71857;BME280;63344;46.980;28.882;2023-02-01T07:11:17;100360.63;;;1.99;73.57
71857;BME280;63344;46.980;28.882;2023-02-01T07:13:45;100350.19;;;1.98;73.34
71857;BME280;63344;46.980;28.882;2023-02-01T07:16:15;100347.59;;;1.93;73.49
71857;BME280;63344;46.980;28.882;2023-02-01T07:18:43;100351.88;;;2.04;73.12
71857;BME280;63344;46.980;28.882;2023-02-01T07:21:10;100354.53;;;2.01;73.09
71857;BME280;63344;46.980;28.882;2023-02-01T07:23:39;100352.75;;;2.03;72.80
71857;BME280;63344;46.980;28.882;2023-02-01T07:26:09;100342.28;;;2.03;72.61
71857;BME280;63344;46.980;28.882;2023-02-01T07:28:36;100348.38;;;2.02;72.75
71857;BME280;63344;46.980;28.882;2023-02-01T07:31:12;100357.09;;;2.04;73.05
71857;BME280;63344;46.980;28.882;2023-02-01T07:33:42;100351.88;;;2.04;73.13
71857;BME280;63344;46.980;28.882;2023-02-01T07:36:16;100352.78;;;1.99;72.71
71857;BME280;63344;46.980;28.882;2023-02-01T07:38:44;100345.84;;;1.94;72.80
71857;BME280;63344;46.980;28.882;2023-02-01T07:41:11;100343.25;;;1.94;72.77
71857;BME280;63344;46.980;28.882;2023-02-01T07:43:38;100336.25;;;1.93;72.55
71857;BME280;63344;46.980;28.882;2023-02-01T07:46:06;100330.91;;;2.05;71.81
71857;BME280;63344;46.980;28.882;2023-02-01T07:48:50;100333.44;;;2.14;71.51
71857;BME280;63344;46.980;28.882;2023-02-01T07:51:17;100339.41;;;2.32;71.23
71857;BME280;63344;46.980;28.882;2023-02-01T07:53:44;100341.78;;;2.53;70.72
71857;BME280;63344;46.980;28.882;2023-02-01T07:56:18;100331.22;;;2.63;70.25
71857;BME280;63344;46.980;28.882;2023-02-01T07:58:52;100346.75;;;2.79;70.26
71857;BME280;63344;46.980;28.882;2023-02-01T08:01:21;100348.41;;;2.90;69.12
71857;BME280;63344;46.980;28.882;2023-02-01T08:03:54;100350.25;;;2.82;68.66
71857;BME280;63344;46.980;28.882;2023-02-01T08:06:22;100336.25;;;2.79;68.62
71857;BME280;63344;46.980;28.882;2023-02-01T08:08:50;100332.84;;;2.71;68.45
71857;BME280;63344;46.980;28.882;2023-02-01T08:11:18;100338.03;;;2.77;68.10
71857;BME280;63344;46.980;28.882;2023-02-01T08:13:51;100342.31;;;2.86;67.38
71857;BME280;63344;46.980;28.882;2023-02-01T08:16:19;100346.63;;;2.90;67.83
71857;BME280;63344;46.980;28.882;2023-02-01T08:18:48;100346.50;;;3.03;67.17
71857;BME280;63344;46.980;28.882;2023-02-01T08:21:18;100348.09;;;3.14;67.26
71857;BME280;63344;46.980;28.882;2023-02-01T08:23:46;100343.50;;;3.30;66.74
71857;BME280;63344;46.980;28.882;2023-02-01T08:26:24;100351.94;;;3.54;66.04
71857;BME280;63344;46.980;28.882;2023-02-01T08:28:56;100345.69;;;3.61;65.03
71857;BME280;63344;46.980;28.882;2023-02-01T08:31:28;100342.06;;;3.70;65.70
71857;BME280;63344;46.980;28.882;2023-02-01T08:34:00;100338.44;;;3.77;65.01
71857;BME280;63344;46.980;28.882;2023-02-01T08:36:30;100335.66;;;3.88;64.33
71857;BME280;63344;46.980;28.882;2023-02-01T08:38:57;100328.63;;;3.90;63.75
71857;BME280;63344;46.980;28.882;2023-02-01T08:41:28;100325.16;;;3.88;63.32
71857;BME280;63344;46.980;28.882;2023-02-01T08:43:56;100319.81;;;3.94;63.34
71857;BME280;63344;46.980;28.882;2023-02-01T08:46:23;100324.09;;;3.99;62.68
71857;BME280;63344;46.980;28.882;2023-02-01T08:48:53;100309.91;;;4.10;62.43
71857;BME280;63344;46.980;28.882;2023-02-01T08:51:22;100313.00;;;4.32;62.16
71857;BME280;63344;46.980;28.882;2023-02-01T08:53:52;100305.88;;;4.38;61.31
71857;BME280;63344;46.980;28.882;2023-02-01T08:56:20;100303.09;;;4.46;60.84
71857;BME280;63344;46.980;28.882;2023-02-01T08:58:57;100305.66;;;4.49;59.94
71857;BME280;63344;46.980;28.882;2023-02-01T09:01:37;100297.72;;;4.54;60.06
71857;BME280;63344;46.980;28.882;2023-02-01T09:04:05;100295.25;;;4.45;59.55
71857;BME280;63344;46.980;28.882;2023-02-01T09:06:33;100289.13;;;4.43;59.08
71857;BME280;63344;46.980;28.882;2023-02-01T09:09:03;100290.50;;;4.64;59.70
71857;BME280;63344;46.980;28.882;2023-02-01T09:11:34;100284.97;;;4.77;57.75
71857;BME280;63344;46.980;28.882;2023-02-01T09:14:38;100280.53;;;4.79;56.98
71857;BME280;63344;46.980;28.882;2023-02-01T09:17:13;100274.25;;;4.85;57.33
71857;BME280;63344;46.980;28.882;2023-02-01T09:19:44;100283.59;;;5.02;57.27
71857;BME280;63344;46.980;28.882;2023-02-01T09:22:14;100267.66;;;5.08;56.55
71857;BME280;63344;46.980;28.882;2023-02-01T09:24:42;100283.31;;;5.14;56.50
71857;BME280;63344;46.980;28.882;2023-02-01T09:27:10;100263.31;;;5.05;56.69
71857;BME280;63344;46.980;28.882;2023-02-01T09:29:40;100258.03;;;5.05;56.43
71857;BME280;63344;46.980;28.882;2023-02-01T09:32:12;100264.22;;;5.04;56.27
71857;BME280;63344;46.980;28.882;2023-02-01T09:34:43;100277.97;;;5.17;57.01
71857;BME280;63344;46.980;28.882;2023-02-01T09:37:11;100244.41;;;5.27;57.09
71857;BME280;63344;46.980;28.882;2023-02-01T09:39:44;100238.94;;;5.36;56.92
71857;BME280;63344;46.980;28.882;2023-02-01T09:42:37;100251.19;;;5.37;56.75
71857;BME280;63344;46.980;28.882;2023-02-01T09:48:21;100242.97;;;5.13;56.80
71857;BME280;63344;46.980;28.882;2023-02-01T09:50:54;100242.13;;;5.11;57.23
71857;BME280;63344;46.980;28.882;2023-02-01T09:53:33;100224.78;;;5.03;55.71
71857;BME280;63344;46.980;28.882;2023-02-01T09:56:06;100232.63;;;5.04;55.23
71857;BME280;63344;46.980;28.882;2023-02-01T09:58:41;100235.53;;;4.92;55.57
71857;BME280;63344;46.980;28.882;2023-02-01T10:01:30;100242.59;;;4.90;55.48
71857;BME280;63344;46.980;28.882;2023-02-01T10:04:10;100253.88;;;4.95;56.44
71857;BME280;63344;46.980;28.882;2023-02-01T10:09:46;100244.28;;;4.94;56.00
71857;BME280;63344;46.980;28.882;2023-02-01T10:20:57;100234.59;;;4.94;57.06
71857;BME280;63344;46.980;28.882;2023-02-01T10:26:26;100231.22;;;4.89;56.31
71857;BME280;63344;46.980;28.882;2023-02-01T10:28:59;100236.50;;;4.88;56.78
71857;BME280;63344;46.980;28.882;2023-02-01T10:31:30;100228.84;;;4.77;57.15
71857;BME280;63344;46.980;28.882;2023-02-01T10:34:01;100228.06;;;4.73;57.27
71857;BME280;63344;46.980;28.882;2023-02-01T10:36:39;100242.13;;;4.71;58.54
71857;BME280;63344;46.980;28.882;2023-02-01T10:39:12;100241.22;;;4.72;58.43
71857;BME280;63344;46.980;28.882;2023-02-01T10:41:54;100222.31;;;4.54;58.36
71857;BME280;63344;46.980;28.882;2023-02-01T10:44:29;100215.66;;;4.35;58.93
71857;BME280;63344;46.980;28.882;2023-02-01T10:47:00;100239.38;;;4.33;58.99
71857;BME280;63344;46.980;28.882;2023-02-01T10:49:42;100246.53;;;4.25;59.67
71857;BME280;63344;46.980;28.882;2023-02-01T10:52:36;100241.44;;;4.17;60.97
71857;BME280;63344;46.980;28.882;2023-02-01T10:55:40;100239.00;;;4.05;61.83
71857;BME280;63344;46.980;28.882;2023-02-01T10:58:26;100237.28;;;4.06;62.42
71857;BME280;63344;46.980;28.882;2023-02-01T11:01:00;100230.28;;;4.05;63.44
71857;BME280;63344;46.980;28.882;2023-02-01T11:03:37;100213.63;;;4.06;63.84
71857;BME280;63344;46.980;28.882;2023-02-01T11:08:56;100201.66;;;4.34;63.52
71857;BME280;63344;46.980;28.882;2023-02-01T11:14:28;100210.78;;;4.60;62.69
71857;BME280;63344;46.980;28.882;2023-02-01T11:19:48;100194.03;;;4.66;62.00
71857;BME280;63344;46.980;28.882;2023-02-01T11:22:25;100187.94;;;4.62;61.43
71857;BME280;63344;46.980;28.882;2023-02-01T11:24:53;100194.78;;;4.71;61.78
71857;BME280;63344;46.980;28.882;2023-02-01T11:27:25;100186.38;;;4.94;61.37
71857;BME280;63344;46.980;28.882;2023-02-01T11:30:00;100185.34;;;5.37;60.46
71857;BME280;63344;46.980;28.882;2023-02-01T11:32:29;100180.97;;;5.72;59.10
71857;BME280;63344;46.980;28.882;2023-02-01T11:35:18;100167.97;;;6.00;57.82
71857;BME280;63344;46.980;28.882;2023-02-01T11:37:54;100184.47;;;6.07;57.21
71857;BME280;63344;46.980;28.882;2023-02-01T11:40:28;100178.81;;;5.88;57.31
71857;BME280;63344;46.980;28.882;2023-02-01T11:45:30;100186.41;;;5.66;58.05
71857;BME280;63344;46.980;28.882;2023-02-01T11:48:01;100196.47;;;5.50;58.38
71857;BME280;63344;46.980;28.882;2023-02-01T11:50:44;100193.56;;;5.25;59.06
71857;BME280;63344;46.980;28.882;2023-02-01T11:56:15;100201.09;;;5.03;59.92
71857;BME280;63344;46.980;28.882;2023-02-01T12:01:36;100202.59;;;4.74;60.06
71857;BME280;63344;46.980;28.882;2023-02-01T12:06:55;100198.47;;;4.62;60.42
71857;BME280;63344;46.980;28.882;2023-02-01T12:10:00;100193.91;;;4.70;60.71
71857;BME280;63344;46.980;28.882;2023-02-01T12:12:45;100184.88;;;4.84;60.51
71857;BME280;63344;46.980;28.882;2023-02-01T12:15:57;100190.81;;;5.29;60.23
71857;BME280;63344;46.980;28.882;2023-02-01T12:18:35;100195.72;;;5.43;59.02
71857;BME280;63344;46.980;28.882;2023-02-01T12:44:02;100190.59;;;5.01;61.03
71857;BME280;63344;46.980;28.882;2023-02-01T12:46:39;100194.31;;;5.30;60.39
71857;BME280;63344;46.980;28.882;2023-02-01T12:49:41;100192.09;;;5.49;60.18
71857;BME280;63344;46.980;28.882;2023-02-01T12:52:36;100189.06;;;5.64;59.27
71857;BME280;63344;46.980;28.882;2023-02-01T12:55:15;100192.09;;;5.83;59.41
71857;BME280;63344;46.980;28.882;2023-02-01T12:57:52;100197.97;;;6.87;57.36
71857;BME280;63344;46.980;28.882;2023-02-01T13:00:34;100184.13;;;7.88;54.53
71857;BME280;63344;46.980;28.882;2023-02-01T13:03:40;100186.91;;;8.59;52.16
71857;BME280;63344;46.980;28.882;2023-02-01T13:06:17;100185.81;;;8.40;51.14
71857;BME280;63344;46.980;28.882;2023-02-01T13:08:53;100183.94;;;8.18;51.46
71857;BME280;63344;46.980;28.882;2023-02-01T13:11:38;100199.94;;;8.15;51.19
71857;BME280;63344;46.980;28.882;2023-02-01T13:17:12;100197.41;;;7.60;51.69
71857;BME280;63344;46.980;28.882;2023-02-01T13:19:42;100211.84;;;6.95;53.20
71857;BME280;63344;46.980;28.882;2023-02-01T13:22:22;100196.59;;;6.45;54.41
71857;BME280;63344;46.980;28.882;2023-02-01T13:24:56;100205.16;;;6.21;55.17
71857;BME280;63344;46.980;28.882;2023-02-01T13:27:27;100204.91;;;6.31;55.51
71857;BME280;63344;46.980;28.882;2023-02-01T13:30:23;100201.09;;;6.71;54.40
71857;BME280;63344;46.980;28.882;2023-02-01T13:33:11;100204.91;;;6.31;55.42
71857;BME280;63344;46.980;28.882;2023-02-01T13:39:08;100199.19;;;6.15;55.92
71857;BME280;63344;46.980;28.882;2023-02-01T13:41:57;100198.78;;;5.96;56.13
71857;BME280;63344;46.980;28.882;2023-02-01T13:44:31;100185.03;;;5.85;56.02
71857;BME280;63344;46.980;28.882;2023-02-01T13:47:08;100195.97;;;6.04;55.83
71857;BME280;63344;46.980;28.882;2023-02-01T13:49:40;100201.44;;;5.96;55.90
71857;BME280;63344;46.980;28.882;2023-02-01T13:57:42;100197.09;;;5.24;57.64
71857;BME280;63344;46.980;28.882;2023-02-01T14:00:34;100205.28;;;5.11;58.19
71857;BME280;63344;46.980;28.882;2023-02-01T14:10:55;100211.91;;;4.89;59.13
71857;BME280;63344;46.980;28.882;2023-02-01T14:21:18;100216.44;;;4.84;59.75
71857;BME280;63344;46.980;28.882;2023-02-01T14:26:43;100223.56;;;4.77;60.26
71857;BME280;63344;46.980;28.882;2023-02-01T14:32:16;100215.06;;;4.66;60.43
71857;BME280;63344;46.980;28.882;2023-02-01T14:34:54;100223.03;;;4.61;60.66
71857;BME280;63344;46.980;28.882;2023-02-01T14:37:35;100213.41;;;4.62;61.06
71857;BME280;63344;46.980;28.882;2023-02-01T14:42:46;100213.44;;;4.58;61.02
71857;BME280;63344;46.980;28.882;2023-02-01T14:56:06;100229.38;;;4.51;61.04
71857;BME280;63344;46.980;28.882;2023-02-01T15:01:30;100226.97;;;4.40;61.86
71857;BME280;63344;46.980;28.882;2023-02-01T15:04:12;100231.56;;;4.29;62.01
71857;BME280;63344;46.980;28.882;2023-02-01T15:06:49;100240.41;;;4.25;62.53
71857;BME280;63344;46.980;28.882;2023-02-01T15:09:23;100225.81;;;4.10;62.49
71857;BME280;63344;46.980;28.882;2023-02-01T15:14:33;100237.19;;;4.09;62.64
71857;BME280;63344;46.980;28.882;2023-02-01T15:17:01;100246.03;;;4.05;62.71
71857;BME280;63344;46.980;28.882;2023-02-01T15:19:35;100236.59;;;3.94;62.64
71857;BME280;63344;46.980;28.882;2023-02-01T15:22:03;100247.91;;;3.98;63.11
71857;BME280;63344;46.980;28.882;2023-02-01T15:24:31;100248.91;;;3.91;63.06
71857;BME280;63344;46.980;28.882;2023-02-01T15:27:09;100254.16;;;3.91;63.06
71857;BME280;63344;46.980;28.882;2023-02-01T15:29:37;100238.63;;;3.77;63.17
71857;BME280;63344;46.980;28.882;2023-02-01T15:32:04;100235.28;;;3.69;63.16
71857;BME280;63344;46.980;28.882;2023-02-01T15:34:48;100237.94;;;3.67;63.89
71857;BME280;63344;46.980;28.882;2023-02-01T15:37:20;100248.41;;;3.69;63.87